Hlavní strana
METAR-TAF:

METAR-TAF

Letiště :

Letiště Riga

Riga, Lotyšsko

zeměpisná šířka: 56-55N, zeměpisná délka: 023-58E, výška: 10 m

Aktuální stav počasí

Zpráva byla vytvořena před 28 minutami, v 03:20 UTC
Jihozápadní vítr 4 kt
Teplota -1°C
Vlhkost vzduchu 93%
Tlak 1011 hPa
Viditelnost 10 km a více
Žádná oblačnost pod 1500 m, nevyskytují se cumulonimby.

METAR: EVRA 040320Z 23004KT CAVOK M01/M02 Q1011 NOSIG

Čas: 06:48 (03:48 UTC)

Předpověď počasí

Zpráva byla vytvořena před 1 hodinou a 44 minutami, v 02:04 UTC
Předpověď platná od 04 v 03 UTC do 05 v 03 UTC
Západojihozápadní vítr 7 kt
Viditelnost 10 km a více
Polojasno ve výšce 4500 ft
Dočasný
od 04 v 03 UTC do 04 v 08 UTC
Polojasno ve výšce 2000 ft, Cumulonimbus.
Dočasný
od 04 v 08 UTC do 04 v 15 UTC
Západní vítr 15 kt s nárazy do 28 kt
Polojasno ve výšce 2000 ft, Cumulonimbus.
Oblačno až skoro zataženo ve výšce 3500 ft

TAF: EVRA 040204Z 0403/0503 25007KT 9999 SCT045 TEMPO 0403/0408 SCT020CB TEMPO 0408/0415 27015G28KT SCT020CB BKN035

Stav a předpovědi počasí z více než 4 000 letišť (zprávy METAR a TAF).

Červené a žluté tečky na mapě představují dostupné meteorologické stanice.

Když kurzor umístíte na tečku, zobrazí se název stanice.

Pak kliknutím zobrazíte stav a předpověď počasí.

Chcete-li změnit mapu, kliknutím na zelené tlačítko se znaménkem +mapu přiblížíte, kliknutím na zelené tlačítko se znaménkem – mapu oddálíte a kliknutím na zelené šipky přejdete na sousední mapy.


METAR-TAF: